Time;durP1;ratioP1;P1;durP2;ratioP2;P2;SDS_P1;SDS_P2;PMS_P1;PMS_P2;Temp;Humidity;BMP_temperature;BMP_pressure;BME280_temperature;BME280_humidity;BME280_pressure;Samples;Min_cycle;Max_cycle;Signal;HPM_P1;HPM_P2
2021/06/06 00:00:40;;;;;;;43.30;33.30;;;;;;;;;;5048281;28;20040;-69
2021/06/06 00:03:07;;;;;;;38.22;31.67;;;;;;;;;;5053553;28;20031;-69
2021/06/06 00:05:54;;;;;;;34.80;29.17;;;;;;;;;;5053481;28;20023;-68
2021/06/06 00:08:20;;;;;;;37.92;30.17;;;;;;;;;;5050776;28;20037;-68
2021/06/06 00:10:49;;;;;;;33.90;27.33;;;;;;;;;;5054334;28;20047;-68
2021/06/06 00:13:14;;;;;;;35.28;28.10;;;;;;;;;;5053229;28;20020;-69
2021/06/06 00:15:40;;;;;;;36.25;30.05;;;;;;;;;;5069638;28;20035;-67
2021/06/06 00:18:06;;;;;;;37.83;30.92;;;;;;;;;;5054162;28;20504;-68
2021/06/06 00:20:31;;;;;;;35.05;28.88;;;;;;;;;;5054177;28;20017;-69
2021/06/06 00:22:56;;;;;;;36.50;31.50;;;;;;;;;;5036413;28;20025;-68
2021/06/06 00:25:25;;;;;;;35.85;29.52;;;;;;;;;;5034088;28;20240;-68
2021/06/06 00:27:50;;;;;;;43.80;33.88;;;;;;;;;;5047285;28;20357;-68
2021/06/06 00:30:15;;;;;;;35.67;31.73;;;;;;;;;;5053853;28;20091;-68
2021/06/06 00:32:41;;;;;;;39.30;32.70;;;;;;;;;;5053740;28;20045;-68
2021/06/06 00:35:07;;;;;;;40.92;33.17;;;;;;;;;;5052389;28;20021;-68
2021/06/06 00:37:32;;;;;;;37.17;32.83;;;;;;;;;;5052589;28;20032;-67
2021/06/06 00:39:58;;;;;;;40.92;34.13;;;;;;;;;;5053182;28;20463;-67
2021/06/06 00:42:23;;;;;;;47.28;35.20;;;;;;;;;;5050786;28;20028;-67
2021/06/06 00:44:48;;;;;;;42.50;34.50;;;;;;;;;;5033306;28;20021;-67
2021/06/06 00:47:14;;;;;;;47.17;37.33;;;;;;;;;;5033568;28;20026;-67
2021/06/06 00:49:40;;;;;;;42.03;34.58;;;;;;;;;;5051154;28;20031;-68
2021/06/06 00:52:06;;;;;;;47.88;35.83;;;;;;;;;;5053294;28;20422;-68
2021/06/06 00:54:37;;;;;;;45.97;35.78;;;;;;;;;;5046309;28;20105;-68
2021/06/06 00:57:10;;;;;;;48.33;36.63;;;;;;;;;;5033029;28;20032;-67
2021/06/06 00:59:36;;;;;;;51.88;37.10;;;;;;;;;;5036448;28;20567;-68
2021/06/06 01:02:02;;;;;;;44.30;35.92;;;;;;;;;;5037340;28;20048;-67
2021/06/06 01:04:30;;;;;;;45.20;35.97;;;;;;;;;;5033179;28;20033;-68
2021/06/06 01:06:55;;;;;;;49.55;35.50;;;;;;;;;;5038189;28;20109;-67
2021/06/06 01:09:22;;;;;;;50.22;38.03;;;;;;;;;;5052857;28;20468;-67
2021/06/06 01:11:51;;;;;;;46.67;37.97;;;;;;;;;;5052347;28;20013;-67
2021/06/06 01:14:19;;;;;;;45.15;37.30;;;;;;;;;;5052994;28;20377;-67
2021/06/06 01:16:44;;;;;;;41.33;32.85;;;;;;;;;;5052210;28;20025;-68
2021/06/06 01:19:29;;;;;;;42.23;34.00;;;;;;;;;;5053304;28;20021;-67
2021/06/06 01:22:13;;;;;;;42.03;31.30;;;;;;;;;;5040766;28;20675;-68
2021/06/06 01:24:40;;;;;;;41.78;31.25;;;;;;;;;;5053008;28;20028;-68
2021/06/06 01:27:13;;;;;;;42.92;30.10;;;;;;;;;;5051358;28;20036;-68
2021/06/06 01:29:49;;;;;;;34.03;28.05;;;;;;;;;;5052811;28;20493;-68
2021/06/06 01:32:17;;;;;;;31.70;24.73;;;;;;;;;;5051209;28;20025;-68
2021/06/06 01:34:48;;;;;;;36.92;28.35;;;;;;;;;;5052913;28;20402;-68
2021/06/06 01:37:16;;;;;;;31.23;26.05;;;;;;;;;;5052857;28;20048;-68
2021/06/06 01:39:48;;;;;;;34.33;28.77;;;;;;;;;;5052969;28;20607;-68
2021/06/06 01:42:16;;;;;;;34.70;28.15;;;;;;;;;;5052172;28;20032;-68
2021/06/06 01:44:43;;;;;;;39.53;31.23;;;;;;;;;;5052831;28;20055;-68
2021/06/06 01:47:12;;;;;;;38.72;31.73;;;;;;;;;;5046389;28;20024;-68
2021/06/06 01:49:56;;;;;;;46.80;34.15;;;;;;;;;;5075021;28;20091;-68
2021/06/06 01:52:26;;;;;;;47.30;35.50;;;;;;;;;;5056565;28;20053;-68
2021/06/06 01:54:52;;;;;;;42.17;34.35;;;;;;;;;;5056721;28;20021;-68
2021/06/06 01:57:19;;;;;;;41.20;34.72;;;;;;;;;;5039330;28;20031;-68
2021/06/06 01:59:48;;;;;;;43.78;34.50;;;;;;;;;;5088422;28;20098;-68
2021/06/06 02:02:14;;;;;;;41.65;34.58;;;;;;;;;;5056750;28;20408;-68
2021/06/06 02:04:39;;;;;;;44.72;35.47;;;;;;;;;;5056882;28;20033;-68
2021/06/06 02:07:09;;;;;;;45.22;34.25;;;;;;;;;;5055886;28;20029;-69
2021/06/06 02:09:38;;;;;;;41.63;34.17;;;;;;;;;;5056555;28;20150;-68
2021/06/06 02:12:05;;;;;;;42.45;32.67;;;;;;;;;;5055768;28;20112;-68
2021/06/06 02:14:40;;;;;;;44.88;31.70;;;;;;;;;;5056606;28;20025;-68
2021/06/06 02:17:09;;;;;;;35.63;30.50;;;;;;;;;;5056594;28;20061;-68
2021/06/06 02:19:36;;;;;;;41.83;31.50;;;;;;;;;;5051500;28;20035;-68
2021/06/06 02:22:04;;;;;;;38.30;29.33;;;;;;;;;;5040531;28;20025;-68
2021/06/06 02:24:32;;;;;;;35.17;28.17;;;;;;;;;;5055420;28;20397;-67
2021/06/06 02:27:12;;;;;;;36.58;28.65;;;;;;;;;;5054842;28;20039;-67
2021/06/06 02:30:01;;;;;;;39.75;33.85;;;;;;;;;;5046187;28;20032;-68
2021/06/06 02:32:26;;;;;;;40.63;30.92;;;;;;;;;;5027543;28;20033;-69
2021/06/06 02:34:56;;;;;;;35.13;29.00;;;;;;;;;;5035520;28;20162;-69
2021/06/06 02:37:24;;;;;;;33.95;28.00;;;;;;;;;;5051613;28;20883;-67
2021/06/06 02:39:51;;;;;;;35.65;28.98;;;;;;;;;;5050995;28;20083;-68
2021/06/06 02:42:24;;;;;;;39.05;30.70;;;;;;;;;;5035994;28;20104;-67
2021/06/06 02:44:53;;;;;;;36.22;32.28;;;;;;;;;;5041391;28;20466;-68
2021/06/06 02:47:32;;;;;;;37.42;30.60;;;;;;;;;;5055873;28;20020;-68
2021/06/06 02:50:01;;;;;;;40.40;31.38;;;;;;;;;;5055772;28;20279;-69
2021/06/06 02:52:38;;;;;;;41.65;31.98;;;;;;;;;;5051880;28;20025;-68
2021/06/06 02:55:07;;;;;;;37.92;30.60;;;;;;;;;;5054402;28;20031;-68
2021/06/06 02:57:35;;;;;;;38.95;31.10;;;;;;;;;;5052276;28;20017;-68
2021/06/06 03:00:05;;;;;;;35.17;29.70;;;;;;;;;;5043989;28;20028;-68
2021/06/06 03:02:38;;;;;;;34.15;29.38;;;;;;;;;;5046789;28;20585;-68
2021/06/06 03:05:03;;;;;;;38.03;29.63;;;;;;;;;;5042584;28;20366;-68
2021/06/06 03:07:32;;;;;;;36.60;28.10;;;;;;;;;;5055615;28;20027;-68
2021/06/06 03:10:00;;;;;;;33.80;28.45;;;;;;;;;;5055201;28;20076;-67
2021/06/06 03:12:29;;;;;;;33.58;28.20;;;;;;;;;;5051385;28;20087;-68
2021/06/06 03:14:57;;;;;;;39.83;27.40;;;;;;;;;;5034992;28;20515;-68
2021/06/06 03:17:24;;;;;;;39.45;31.13;;;;;;;;;;5035007;28;20033;-68
2021/06/06 03:19:51;;;;;;;33.85;28.85;;;;;;;;;;5034682;28;20021;-67
2021/06/06 03:22:25;;;;;;;37.72;31.10;;;;;;;;;;5035037;28;20028;-67
2021/06/06 03:24:54;;;;;;;39.35;29.60;;;;;;;;;;5035049;28;20025;-68
2021/06/06 03:27:20;;;;;;;41.95;33.17;;;;;;;;;;5035025;28;20036;-69
2021/06/06 03:29:54;;;;;;;44.50;32.72;;;;;;;;;;5034739;28;20037;-69
2021/06/06 03:32:25;;;;;;;38.55;32.08;;;;;;;;;;5035088;28;20422;-69
2021/06/06 03:34:51;;;;;;;38.63;31.50;;;;;;;;;;5052190;28;20025;-69
2021/06/06 03:37:19;;;;;;;38.85;31.85;;;;;;;;;;5054829;28;20020;-67
2021/06/06 03:39:45;;;;;;;39.40;31.67;;;;;;;;;;5038241;28;20037;-69
2021/06/06 03:42:12;;;;;;;36.40;30.70;;;;;;;;;;5034811;28;20022;-68
2021/06/06 03:44:38;;;;;;;36.63;29.88;;;;;;;;;;5034970;28;20147;-68
2021/06/06 03:47:03;;;;;;;38.25;30.48;;;;;;;;;;5034343;28;20128;-67
2021/06/06 03:49:29;;;;;;;41.25;31.88;;;;;;;;;;5041281;28;20032;-68
2021/06/06 03:51:55;;;;;;;38.42;28.48;;;;;;;;;;5053528;28;20446;-67
2021/06/06 03:54:22;;;;;;;40.22;31.10;;;;;;;;;;5054371;28;20074;-69
2021/06/06 03:56:49;;;;;;;35.10;29.95;;;;;;;;;;5053855;28;20029;-68
2021/06/06 03:59:17;;;;;;;37.08;29.92;;;;;;;;;;5054284;28;20048;-68
2021/06/06 04:01:43;;;;;;;39.80;33.67;;;;;;;;;;5040089;28;20094;-67
2021/06/06 04:04:09;;;;;;;40.10;30.88;;;;;;;;;;5044861;28;20044;-68
2021/06/06 04:06:34;;;;;;;43.78;36.08;;;;;;;;;;5054084;28;20116;-67
2021/06/06 04:09:02;;;;;;;43.45;34.60;;;;;;;;;;5053740;28;20606;-67
2021/06/06 04:11:27;;;;;;;42.90;34.08;;;;;;;;;;5053317;28;20044;-67
2021/06/06 04:13:52;;;;;;;47.72;37.13;;;;;;;;;;5053565;28;20029;-68
2021/06/06 04:16:18;;;;;;;48.40;36.58;;;;;;;;;;5065418;28;20029;-68
2021/06/06 04:18:45;;;;;;;43.30;34.03;;;;;;;;;;5034168;28;20031;-68
2021/06/06 04:21:13;;;;;;;42.60;36.75;;;;;;;;;;5034205;28;20033;-68
2021/06/06 04:23:41;;;;;;;48.47;37.28;;;;;;;;;;5038740;28;20091;-68
2021/06/06 04:26:06;;;;;;;45.88;36.80;;;;;;;;;;5048693;28;20059;-67
2021/06/06 04:28:34;;;;;;;45.90;35.95;;;;;;;;;;5052727;28;20048;-68
2021/06/06 04:30:59;;;;;;;45.20;37.22;;;;;;;;;;5052833;28;20017;-68
2021/06/06 04:33:25;;;;;;;47.35;38.75;;;;;;;;;;5053482;28;20044;-68
2021/06/06 04:35:50;;;;;;;50.72;37.58;;;;;;;;;;5053093;28;20073;-68
2021/06/06 04:38:18;;;;;;;42.90;35.72;;;;;;;;;;5053124;28;20060;-68
2021/06/06 04:40:44;;;;;;;42.70;36.55;;;;;;;;;;5053613;28;20017;-69
2021/06/06 04:43:12;;;;;;;44.30;37.42;;;;;;;;;;5036730;28;20021;-68
2021/06/06 04:45:39;;;;;;;43.08;35.35;;;;;;;;;;5040626;28;20059;-67
2021/06/06 04:48:27;;;;;;;42.33;32.97;;;;;;;;;;5046748;28;20096;-70
2021/06/06 04:50:53;;;;;;;34.33;30.27;;;;;;;;;;5048524;28;20045;-67
2021/06/06 04:53:19;;;;;;;38.72;29.88;;;;;;;;;;5052906;28;20020;-68
2021/06/06 04:55:45;;;;;;;31.77;27.13;;;;;;;;;;5051920;28;20458;-68
2021/06/06 04:58:12;;;;;;;32.08;26.10;;;;;;;;;;5048953;28;20031;-69
2021/06/06 05:00:40;;;;;;;31.38;26.10;;;;;;;;;;5050712;28;20107;-68
2021/06/06 05:03:06;;;;;;;32.30;24.52;;;;;;;;;;5049623;28;20029;-68
2021/06/06 05:05:31;;;;;;;27.38;24.20;;;;;;;;;;5052140;28;20016;-69
2021/06/06 05:08:00;;;;;;;29.67;24.60;;;;;;;;;;5050361;28;20108;-67
2021/06/06 05:10:26;;;;;;;30.75;25.20;;;;;;;;;;5052982;28;20183;-67
2021/06/06 05:12:51;;;;;;;31.60;25.52;;;;;;;;;;5050414;28;20376;-67
2021/06/06 05:15:20;;;;;;;31.70;26.30;;;;;;;;;;5052987;28;20023;-79
2021/06/06 05:17:45;;;;;;;33.15;25.75;;;;;;;;;;5051514;28;20111;-77
2021/06/06 05:20:16;;;;;;;33.42;27.05;;;;;;;;;;5051844;28;20101;-77
2021/06/06 05:22:41;;;;;;;28.80;24.00;;;;;;;;;;5050452;28;20040;-77
2021/06/06 05:25:07;;;;;;;32.57;23.13;;;;;;;;;;5052382;28;20033;-77
2021/06/06 05:27:33;;;;;;;26.88;23.58;;;;;;;;;;5052043;28;20607;-70
2021/06/06 05:30:00;;;;;;;28.35;23.65;;;;;;;;;;5051718;28;20086;-70
2021/06/06 05:32:28;;;;;;;27.95;22.83;;;;;;;;;;5052137;28;20044;-72
2021/06/06 05:34:53;;;;;;;25.65;23.05;;;;;;;;;;5048397;28;20064;-76
2021/06/06 05:37:18;;;;;;;26.75;21.98;;;;;;;;;;5049370;28;20045;-76
2021/06/06 05:39:44;;;;;;;28.05;22.23;;;;;;;;;;5051962;28;20021;-78
2021/06/06 05:42:10;;;;;;;26.50;22.55;;;;;;;;;;5044197;28;20088;-80
2021/06/06 05:44:35;;;;;;;29.05;22.88;;;;;;;;;;5047207;28;20067;-79
2021/06/06 05:47:00;;;;;;;26.67;21.90;;;;;;;;;;5062045;28;20403;-76
2021/06/06 05:49:25;;;;;;;24.70;22.15;;;;;;;;;;5042690;28;20013;-75
2021/06/06 05:51:53;;;;;;;28.10;23.15;;;;;;;;;;5049366;28;20429;-75
2021/06/06 05:54:21;;;;;;;26.73;22.13;;;;;;;;;;5043143;28;20109;-75
2021/06/06 05:56:46;;;;;;;26.48;22.88;;;;;;;;;;5043046;28;20028;-74
2021/06/06 05:59:11;;;;;;;30.40;23.27;;;;;;;;;;5049467;28;20518;-75
2021/06/06 06:01:37;;;;;;;32.72;26.83;;;;;;;;;;5031222;28;20428;-75
2021/06/06 06:04:05;;;;;;;33.05;24.95;;;;;;;;;;5032763;28;20055;-80
2021/06/06 06:06:33;;;;;;;30.85;27.00;;;;;;;;;;5049361;28;20021;-74
2021/06/06 06:08:58;;;;;;;40.42;28.35;;;;;;;;;;5052237;28;20071;-75
2021/06/06 06:11:24;;;;;;;33.83;29.15;;;;;;;;;;5052696;28;20106;-76
2021/06/06 06:13:49;;;;;;;37.60;28.45;;;;;;;;;;5051943;28;20017;-75
2021/06/06 06:16:16;;;;;;;36.70;27.52;;;;;;;;;;5044912;28;20103;-74
2021/06/06 06:18:41;;;;;;;33.40;27.70;;;;;;;;;;5049235;28;20025;-76
2021/06/06 06:21:10;;;;;;;32.85;27.58;;;;;;;;;;5047070;28;20583;-75
2021/06/06 06:23:36;;;;;;;35.08;28.98;;;;;;;;;;5044264;28;20032;-76
2021/06/06 06:26:02;;;;;;;39.38;31.20;;;;;;;;;;5044300;28;20032;-75
2021/06/06 06:28:29;;;;;;;39.60;31.70;;;;;;;;;;5046844;28;20021;-76
2021/06/06 06:30:57;;;;;;;39.47;30.50;;;;;;;;;;5047506;28;20031;-76
2021/06/06 06:33:22;;;;;;;42.92;32.38;;;;;;;;;;5050843;28;20391;-77
2021/06/06 06:35:47;;;;;;;37.53;31.10;;;;;;;;;;5055461;28;20025;-78
2021/06/06 06:38:16;;;;;;;35.33;31.52;;;;;;;;;;5054496;28;20139;-76
2021/06/06 06:40:42;;;;;;;36.63;29.20;;;;;;;;;;5055721;28;20025;-75
2021/06/06 06:43:08;;;;;;;38.50;30.60;;;;;;;;;;5062310;28;20025;-76
2021/06/06 06:45:34;;;;;;;40.17;28.98;;;;;;;;;;5054905;28;20025;-76
2021/06/06 06:48:02;;;;;;;34.65;26.48;;;;;;;;;;5059628;28;20494;-77
2021/06/06 06:50:27;;;;;;;31.42;25.65;;;;;;;;;;5056227;28;20122;-77
2021/06/06 06:52:52;;;;;;;37.60;28.20;;;;;;;;;;5054708;28;20025;-77
2021/06/06 06:55:19;;;;;;;34.20;26.60;;;;;;;;;;5051462;28;20025;-75
2021/06/06 06:57:47;;;;;;;34.83;27.33;;;;;;;;;;5054063;28;20043;-75
2021/06/06 07:00:16;;;;;;;38.38;29.35;;;;;;;;;;5050521;28;20036;-78
2021/06/06 07:02:41;;;;;;;41.75;29.48;;;;;;;;;;5055390;28;20025;-76
2021/06/06 07:05:07;;;;;;;36.88;29.23;;;;;;;;;;5052783;28;20021;-77
2021/06/06 07:07:33;;;;;;;36.17;28.50;;;;;;;;;;5035003;28;20036;-77
2021/06/06 07:09:58;;;;;;;35.28;29.15;;;;;;;;;;5049791;28;20483;-77
2021/06/06 07:12:23;;;;;;;37.45;31.05;;;;;;;;;;5056563;28;20096;-77
2021/06/06 07:14:48;;;;;;;39.78;31.58;;;;;;;;;;5056980;28;20089;-78
2021/06/06 07:17:16;;;;;;;39.63;33.03;;;;;;;;;;5053041;28;20021;-78
2021/06/06 07:19:43;;;;;;;36.60;30.80;;;;;;;;;;5035353;28;20260;-78
2021/06/06 07:22:09;;;;;;;39.10;30.30;;;;;;;;;;5052443;28;20475;-78
2021/06/06 07:24:37;;;;;;;40.90;31.20;;;;;;;;;;5050856;28;20033;-78
2021/06/06 07:27:06;;;;;;;37.55;29.38;;;;;;;;;;5049178;28;20449;-79
2021/06/06 07:29:34;;;;;;;34.20;27.58;;;;;;;;;;5053184;28;20104;-77
2021/06/06 07:32:08;;;;;;;37.55;29.25;;;;;;;;;;5054895;28;20481;-78
2021/06/06 07:34:34;;;;;;;38.65;31.90;;;;;;;;;;5051292;28;20025;-77
2021/06/06 07:37:02;;;;;;;39.80;30.23;;;;;;;;;;5067597;28;20346;-71
2021/06/06 07:39:27;;;;;;;35.95;28.73;;;;;;;;;;5053936;28;20445;-74
2021/06/06 07:41:55;;;;;;;32.90;27.60;;;;;;;;;;5053947;28;20025;-74
2021/06/06 07:44:22;;;;;;;35.63;29.50;;;;;;;;;;5044887;28;20276;-75
2021/06/06 07:46:50;;;;;;;39.17;29.33;;;;;;;;;;5034689;28;20083;-75
2021/06/06 07:49:16;;;;;;;41.75;31.73;;;;;;;;;;5034520;28;20022;-75
2021/06/06 07:51:41;;;;;;;39.55;31.63;;;;;;;;;;5034857;28;20043;-75
2021/06/06 07:54:07;;;;;;;40.85;32.17;;;;;;;;;;5033671;28;20029;-75
2021/06/06 07:56:33;;;;;;;37.67;31.45;;;;;;;;;;5035959;28;20091;-75
2021/06/06 07:58:58;;;;;;;39.15;29.90;;;;;;;;;;5053673;28;20495;-74
2021/06/06 08:01:25;;;;;;;34.70;29.67;;;;;;;;;;5034794;28;20100;-78
2021/06/06 08:03:51;;;;;;;43.97;33.20;;;;;;;;;;5049840;28;20033;-74
2021/06/06 08:06:16;;;;;;;41.80;32.08;;;;;;;;;;5053857;28;20114;-73
2021/06/06 08:08:42;;;;;;;45.35;36.35;;;;;;;;;;5053334;28;20373;-73
2021/06/06 08:11:08;;;;;;;44.85;35.15;;;;;;;;;;5054523;28;20028;-70
2021/06/06 08:13:33;;;;;;;49.58;39.33;;;;;;;;;;5053170;28;20024;-71
2021/06/06 08:16:02;;;;;;;46.97;36.70;;;;;;;;;;5053358;28;20087;-74
2021/06/06 08:18:32;;;;;;;50.50;39.13;;;;;;;;;;5045748;28;20024;-79
2021/06/06 08:20:59;;;;;;;45.53;36.40;;;;;;;;;;5050545;28;20033;-78
2021/06/06 08:23:24;;;;;;;46.53;37.15;;;;;;;;;;5053969;28;20039;-78
2021/06/06 08:25:50;;;;;;;54.35;40.92;;;;;;;;;;5053928;28;20028;-78
2021/06/06 08:28:16;;;;;;;54.03;40.50;;;;;;;;;;5052525;28;20108;-77
2021/06/06 08:30:45;;;;;;;55.80;41.53;;;;;;;;;;5053122;28;20031;-64
2021/06/06 08:33:11;;;;;;;57.95;43.40;;;;;;;;;;5052978;28;20111;-67
2021/06/06 08:35:37;;;;;;;56.00;42.28;;;;;;;;;;5069212;28;20539;-72
2021/06/06 08:38:02;;;;;;;62.50;43.63;;;;;;;;;;5053854;28;20040;-74
2021/06/06 08:40:50;;;;;;;59.47;45.75;;;;;;;;;;5053894;28;20012;-72
2021/06/06 08:43:15;;;;;;;67.55;48.03;;;;;;;;;;5045623;28;20021;-73
2021/06/06 08:45:46;;;;;;;62.88;46.92;;;;;;;;;;5052697;28;20345;-73
2021/06/06 08:48:14;;;;;;;64.45;45.78;;;;;;;;;;5053944;28;20464;-72
2021/06/06 08:50:43;;;;;;;63.60;46.95;;;;;;;;;;5041745;28;20442;-73
2021/06/06 08:53:15;;;;;;;62.40;46.28;;;;;;;;;;5053163;28;20017;-71
2021/06/06 08:55:50;;;;;;;64.35;47.13;;;;;;;;;;5068956;28;20017;-67
2021/06/06 08:58:18;;;;;;;58.78;44.63;;;;;;;;;;5042509;28;20021;-69
2021/06/06 09:00:46;;;;;;;60.40;45.63;;;;;;;;;;5041880;28;20120;-72
2021/06/06 09:03:14;;;;;;;60.25;45.15;;;;;;;;;;5050424;28;20039;-74
2021/06/06 09:05:44;;;;;;;66.97;46.00;;;;;;;;;;5049750;28;20021;-69
2021/06/06 09:08:13;;;;;;;62.53;45.38;;;;;;;;;;5052974;28;20096;-69
2021/06/06 09:10:40;;;;;;;53.28;40.08;;;;;;;;;;5052801;28;20033;-71
2021/06/06 09:13:07;;;;;;;52.13;39.65;;;;;;;;;;5053449;28;20037;-72
2021/06/06 09:15:35;;;;;;;55.33;41.58;;;;;;;;;;5052840;28;20025;-71
2021/06/06 09:18:15;;;;;;;53.20;42.83;;;;;;;;;;5052639;28;20029;-68
2021/06/06 09:20:41;;;;;;;58.10;40.85;;;;;;;;;;5050573;28;20024;-73
2021/06/06 09:23:09;;;;;;;56.38;41.47;;;;;;;;;;5047453;28;20029;-69
2021/06/06 09:25:38;;;;;;;54.75;37.33;;;;;;;;;;5052107;28;20465;-65
2021/06/06 09:28:05;;;;;;;50.50;40.33;;;;;;;;;;5052607;28;20027;-63
2021/06/06 09:30:31;;;;;;;54.65;38.97;;;;;;;;;;5053018;28;20100;-63
2021/06/06 09:33:15;;;;;;;48.20;38.35;;;;;;;;;;5033594;28;20163;-63
2021/06/06 09:35:49;;;;;;;50.10;38.75;;;;;;;;;;5032757;28;20093;-63
2021/06/06 09:38:21;;;;;;;49.90;38.65;;;;;;;;;;5049974;28;20064;-64
2021/06/06 09:40:48;;;;;;;49.20;38.95;;;;;;;;;;5052273;28;20036;-64
2021/06/06 09:43:43;;;;;;;51.15;40.28;;;;;;;;;;5052845;28;20405;-64
2021/06/06 09:46:09;;;;;;;57.15;40.25;;;;;;;;;;5047347;28;20040;-65
2021/06/06 09:48:41;;;;;;;49.40;38.95;;;;;;;;;;5052760;28;20346;-64
2021/06/06 09:51:08;;;;;;;46.80;37.88;;;;;;;;;;5049975;28;20542;-64
2021/06/06 09:53:35;;;;;;;54.38;41.60;;;;;;;;;;5056428;28;20129;-66
2021/06/06 09:56:05;;;;;;;55.90;39.05;;;;;;;;;;5032510;28;20085;-65
2021/06/06 09:58:33;;;;;;;56.00;41.05;;;;;;;;;;5031374;28;20017;-68
2021/06/06 10:01:02;;;;;;;59.85;42.38;;;;;;;;;;5031803;28;20033;-65
2021/06/06 10:03:32;;;;;;;60.58;42.20;;;;;;;;;;5032446;28;20501;-65
2021/06/06 10:06:15;;;;;;;61.95;42.50;;;;;;;;;;5038698;28;20567;-65
2021/06/06 10:08:44;;;;;;;63.75;44.08;;;;;;;;;;5056122;28;20060;-66
2021/06/06 10:11:14;;;;;;;54.75;42.30;;;;;;;;;;5047284;28;20083;-66
2021/06/06 10:13:47;;;;;;;64.13;43.33;;;;;;;;;;5036847;28;20029;-66
2021/06/06 10:16:16;;;;;;;63.53;43.38;;;;;;;;;;5036484;28;20175;-66
2021/06/06 10:18:44;;;;;;;58.13;42.47;;;;;;;;;;5036496;28;20446;-67
2021/06/06 10:21:09;;;;;;;58.03;43.60;;;;;;;;;;5036516;28;20017;-65
2021/06/06 10:23:36;;;;;;;60.10;42.40;;;;;;;;;;5040646;28;20026;-64
2021/06/06 10:26:08;;;;;;;58.75;41.90;;;;;;;;;;5088743;28;20346;-66
2021/06/06 10:28:35;;;;;;;62.05;44.05;;;;;;;;;;5042551;28;20021;-76
2021/06/06 10:31:06;;;;;;;74.05;49.58;;;;;;;;;;5053270;28;20052;-66
2021/06/06 10:33:34;;;;;;;69.85;46.83;;;;;;;;;;5056307;28;20016;-64
2021/06/06 10:36:00;;;;;;;70.13;49.08;;;;;;;;;;5055435;28;20024;-66
2021/06/06 10:38:26;;;;;;;78.45;51.53;;;;;;;;;;5053797;28;20467;-64
2021/06/06 10:40:58;;;;;;;68.00;47.50;;;;;;;;;;5055148;28;20029;-64
2021/06/06 10:43:36;;;;;;;69.05;46.33;;;;;;;;;;5053883;28;20039;-64
2021/06/06 10:46:20;;;;;;;70.07;47.58;;;;;;;;;;5054543;28;20023;-64
2021/06/06 10:48:48;;;;;;;64.50;47.22;;;;;;;;;;5053937;28;20075;-65
2021/06/06 10:51:17;;;;;;;63.40;48.05;;;;;;;;;;5049133;28;20025;-64
2021/06/06 10:53:52;;;;;;;74.97;51.75;;;;;;;;;;5053345;28;20027;-65
2021/06/06 10:56:30;;;;;;;79.10;53.93;;;;;;;;;;5053564;28;20020;-65
2021/06/06 10:59:01;;;;;;;77.80;52.78;;;;;;;;;;5052381;28;20344;-65
2021/06/06 11:01:43;;;;;;;79.28;54.40;;;;;;;;;;5050711;28;20020;-65
2021/06/06 11:04:11;;;;;;;75.47;53.70;;;;;;;;;;5052653;28;20025;-66
2021/06/06 11:06:37;;;;;;;78.97;52.85;;;;;;;;;;5053076;28;20027;-65
2021/06/06 11:09:05;;;;;;;74.05;52.42;;;;;;;;;;5045362;28;20045;-64
2021/06/06 11:11:37;;;;;;;79.53;50.45;;;;;;;;;;5052294;28;20017;-66
2021/06/06 11:14:10;;;;;;;71.63;53.47;;;;;;;;;;5049835;28;20059;-65
2021/06/06 11:16:36;;;;;;;79.95;49.83;;;;;;;;;;5044832;28;20373;-64
2021/06/06 11:19:27;;;;;;;74.40;50.67;;;;;;;;;;5045764;28;20342;-64
2021/06/06 11:22:01;;;;;;;65.00;47.67;;;;;;;;;;5055337;28;20025;-64
2021/06/06 11:24:38;;;;;;;72.15;47.33;;;;;;;;;;5054368;28;20479;-65
2021/06/06 11:27:09;;;;;;;66.75;47.53;;;;;;;;;;5050520;28;20033;-64
2021/06/06 11:29:49;;;;;;;74.07;50.05;;;;;;;;;;5054733;28;20013;-64
2021/06/06 11:32:21;;;;;;;68.45;47.20;;;;;;;;;;5042285;28;20409;-65
2021/06/06 11:35:08;;;;;;;70.70;48.10;;;;;;;;;;5055136;28;20021;-65
2021/06/06 11:37:39;;;;;;;72.70;48.25;;;;;;;;;;5044500;28;20442;-64
2021/06/06 11:40:25;;;;;;;74.38;50.97;;;;;;;;;;5034734;28;20029;-63
2021/06/06 11:42:56;;;;;;;67.03;49.05;;;;;;;;;;5043819;28;20025;-65
2021/06/06 11:45:37;;;;;;;72.55;51.00;;;;;;;;;;5054457;28;20307;-65
2021/06/06 11:48:08;;;;;;;66.43;47.17;;;;;;;;;;5043305;28;20021;-64
2021/06/06 11:50:42;;;;;;;74.70;50.92;;;;;;;;;;5034581;28;20378;-64
2021/06/06 11:53:21;;;;;;;77.47;55.50;;;;;;;;;;5044332;28;20123;-65
2021/06/06 11:55:51;;;;;;;77.15;55.53;;;;;;;;;;5054800;28;20434;-67
2021/06/06 11:58:19;;;;;;;84.30;59.22;;;;;;;;;;5044060;28;20037;-64
2021/06/06 12:01:04;;;;;;;84.40;60.20;;;;;;;;;;5039135;28;20321;-63
2021/06/06 12:03:32;;;;;;;87.72;58.28;;;;;;;;;;5052921;28;20048;-66
2021/06/06 12:05:57;;;;;;;72.15;55.47;;;;;;;;;;5054054;28;20478;-70
2021/06/06 12:08:34;;;;;;;71.75;55.75;;;;;;;;;;5054006;28;20162;-68
2021/06/06 12:11:00;;;;;;;69.38;53.75;;;;;;;;;;5053347;28;20071;-64
2021/06/06 12:13:30;;;;;;;66.80;51.28;;;;;;;;;;5054439;28;20025;-66
2021/06/06 12:16:03;;;;;;;66.97;50.25;;;;;;;;;;5052263;28;20090;-66
2021/06/06 12:18:29;;;;;;;64.80;53.22;;;;;;;;;;5052425;28;20028;-71
2021/06/06 12:21:07;;;;;;;72.45;53.95;;;;;;;;;;5044247;28;20100;-69
2021/06/06 12:23:36;;;;;;;64.20;52.00;;;;;;;;;;5054057;28;20135;-70
2021/06/06 12:26:08;;;;;;;69.75;56.35;;;;;;;;;;5052809;28;20087;-69
2021/06/06 12:28:35;;;;;;;64.93;52.80;;;;;;;;;;5035659;28;20025;-71
2021/06/06 12:31:03;;;;;;;61.10;51.58;;;;;;;;;;5033749;28;20013;-68
2021/06/06 12:33:33;;;;;;;56.65;48.90;;;;;;;;;;5033974;28;20021;-66
2021/06/06 12:36:19;;;;;;;59.13;49.33;;;;;;;;;;5033841;28;20088;-68
2021/06/06 12:38:44;;;;;;;57.47;46.97;;;;;;;;;;5034014;28;20449;-64
2021/06/06 12:41:10;;;;;;;60.83;48.30;;;;;;;;;;5032477;28;20017;-65
2021/06/06 12:43:40;;;;;;;50.17;42.60;;;;;;;;;;5053545;28;20103;-64
2021/06/06 12:46:07;;;;;;;52.95;43.58;;;;;;;;;;5039716;28;20219;-65
2021/06/06 12:48:38;;;;;;;46.53;41.50;;;;;;;;;;5058588;28;20108;-66
2021/06/06 12:51:19;;;;;;;46.03;40.55;;;;;;;;;;5053147;28;20067;-64
2021/06/06 12:53:45;;;;;;;44.10;39.35;;;;;;;;;;5042444;28;20036;-64
2021/06/06 12:56:13;;;;;;;43.58;38.92;;;;;;;;;;5033213;28;20022;-63
2021/06/06 12:58:40;;;;;;;41.05;35.92;;;;;;;;;;5033204;28;20036;-64
2021/06/06 13:01:25;;;;;;;40.90;36.00;;;;;;;;;;5052366;28;20025;-63
2021/06/06 13:03:50;;;;;;;41.97;37.53;;;;;;;;;;5053465;28;20048;-62
2021/06/06 13:06:21;;;;;;;39.22;34.97;;;;;;;;;;5059742;28;20472;-66
2021/06/06 13:08:46;;;;;;;40.55;35.08;;;;;;;;;;5043771;28;20064;-63
2021/06/06 13:11:13;;;;;;;41.40;34.97;;;;;;;;;;5052943;28;20067;-64
2021/06/06 13:13:48;;;;;;;37.72;33.80;;;;;;;;;;5052743;28;20349;-64
2021/06/06 13:16:28;;;;;;;37.63;30.80;;;;;;;;;;5041349;28;20029;-64
2021/06/06 13:18:57;;;;;;;36.65;30.35;;;;;;;;;;5032613;28;20334;-63
2021/06/06 13:21:24;;;;;;;34.40;27.80;;;;;;;;;;5032534;28;20025;-63
2021/06/06 13:23:49;;;;;;;32.50;28.90;;;;;;;;;;5050808;28;20025;-64
2021/06/06 13:26:23;;;;;;;31.07;27.67;;;;;;;;;;5031392;28;20466;-64
2021/06/06 13:28:58;;;;;;;31.00;26.92;;;;;;;;;;5062171;28;20283;-64
2021/06/06 13:31:37;;;;;;;33.90;29.25;;;;;;;;;;5052439;28;20559;-64
2021/06/06 13:34:03;;;;;;;32.80;26.80;;;;;;;;;;5047877;28;20029;-64
2021/06/06 13:36:28;;;;;;;30.52;27.10;;;;;;;;;;5050258;28;20087;-65
2021/06/06 13:38:54;;;;;;;29.35;24.67;;;;;;;;;;5043355;28;20036;-64
2021/06/06 13:41:19;;;;;;;25.20;21.00;;;;;;;;;;5048069;28;20025;-65
2021/06/06 13:43:44;;;;;;;24.13;21.70;;;;;;;;;;5042474;28;20100;-64
2021/06/06 13:46:13;;;;;;;25.20;22.67;;;;;;;;;;5044905;28;20326;-64
2021/06/06 13:48:39;;;;;;;26.15;22.83;;;;;;;;;;5034736;28;20252;-64
2021/06/06 13:51:05;;;;;;;24.85;21.23;;;;;;;;;;5043169;28;20024;-64
2021/06/06 13:53:31;;;;;;;29.13;23.85;;;;;;;;;;5048094;28;20009;-64
2021/06/06 13:55:57;;;;;;;28.00;22.02;;;;;;;;;;5050592;28;20092;-62
2021/06/06 13:58:23;;;;;;;30.23;25.20;;;;;;;;;;5048780;28;20155;-64
2021/06/06 14:00:48;;;;;;;25.63;22.90;;;;;;;;;;5050660;28;20013;-64
2021/06/06 14:03:15;;;;;;;30.08;23.80;;;;;;;;;;5049491;28;20021;-64
2021/06/06 14:05:40;;;;;;;24.02;21.50;;;;;;;;;;5045369;28;20159;-64
2021/06/06 14:08:06;;;;;;;30.30;22.40;;;;;;;;;;5047039;28;20088;-63
2021/06/06 14:10:38;;;;;;;26.73;23.35;;;;;;;;;;5045957;28;20536;-64
2021/06/06 14:13:07;;;;;;;31.10;24.40;;;;;;;;;;5050084;28;20009;-64
2021/06/06 14:15:33;;;;;;;26.80;24.10;;;;;;;;;;5043467;28;20021;-64
2021/06/06 14:18:00;;;;;;;27.30;24.38;;;;;;;;;;5044384;28;20025;-64
2021/06/06 14:20:26;;;;;;;34.72;25.98;;;;;;;;;;5049415;28;20028;-64
2021/06/06 14:22:53;;;;;;;30.10;25.65;;;;;;;;;;5050181;28;20021;-64
2021/06/06 14:25:19;;;;;;;30.30;24.67;;;;;;;;;;5046752;28;20472;-64